Aviation Digital Data Service (ADDS)

Output produced by METARs form (1924 UTC 20 December 2014)
found at http://aviationweather.gov/adds/metars/
 
KLFT 201732Z 2018/2118 02010KT 5SM BR OVC004 
     FM202100 02009KT P6SM OVC008 
     FM210200 02004KT P6SM SCT008 BKN015